Meteo Giornale » Osservazioni meteo Stati Uniti (USA) » Los Angeles

ore: 06:53 - Osservazioni Meteo Los Angeles
Lat. 33° 56' N Lon. 118° 23' W Alt. 38 metri s.l.m.

poco_nuvoloso America/Los_Angeles

8 °C

Poco Nuvoloso

Temp. 24 Ore

8 °C

13 °C

Nord

0 Km/h

Dew point -5 °C

Umidità 39 %

Visibilità  10 Km

Il sole sorge alle ore 06:32

Il sole tramonta alle ore 17:42

Data e Ora Cielo e Fenomeni T °C DP °C Um. % Pres. hPa Vis. km Vento km/h
Oggi h: 06:53 poco_nuvoloso Poco Nuvoloso 8 -5 39 1017 10 N 0
Oggi h: 05:53 poco_nuvoloso Poco Nuvoloso 8 -4 42 1017 10 NO 18.5
Oggi h: 04:53 sereno Sereno 8 -4 42 1016 10 N/NO 16.7
Oggi h: 03:53 sereno Sereno 9 -5 36 1016 10 N 18.5
Oggi h: 02:53 sereno Sereno 8 -3 45 1016 10 NO 14.8
Oggi h: 01:53 poco_nuvoloso Poco Nuvoloso 9 -3 42 1017 10 O/NO 16.7
Oggi h: 00:53 poco_nuvoloso Poco Nuvoloso 9 -3 42 1017 10 NO 22.2
Ieri h: 23:53 nuvoloso Nuvoloso 9 -3 42 1016 10 NO 22.2
Ieri h: 22:53 nuvoloso Nuvoloso 10 -1 46 1016 10 N/NO 22.2
Ieri h: 21:53 molto_nuvoloso Molto Nuvoloso 11 2 53 1016 10 NO 22.2
Ieri h: 20:53 nuvoloso Nuvoloso 11 2 53 1015 10 O/NO 35.2
Ieri h: 19:53 poco_nuvoloso Poco Nuvoloso 12 3 54 1014 10 O 44.4
Ieri h: 18:53 poco_nuvoloso Poco Nuvoloso 12 3 54 1014 10 O 48.1
Ieri h: 17:53 poco_nuvoloso Poco Nuvoloso 12 4 57 1014 10 O 44.4
Ieri h: 16:53 poco_nuvoloso Poco Nuvoloso 12 4 57 1014 10 O 57.3
Ieri h: 15:53 poco_nuvoloso Poco Nuvoloso 13 4 54 1014 10 O 51.8
Ieri h: 14:53 nuvoloso Nuvoloso 13 9 76 1015 10 O 31.5
Ieri h: 13:53 molto_nuvoloso Molto Nuvoloso 12 7 71 1016 10 O/SO 24
Ieri h: 12:53 molto_nuvoloso Molto Nuvoloso 12 6 66 1017 10 O/SO 18.5
Ieri h: 11:53 coperto Coperto 12 5 62 1018 10 O 37
Ieri h: 10:53 molto_nuvoloso Molto Nuvoloso 13 3 50 1019 10 O 31.5
Ieri h: 09:53 nuvoloso Nuvoloso 12 2 50 1019 10 O/SO 11.1
Ieri h: 08:53 nuvoloso Nuvoloso 12 4 57 1019 10 O 11.1
Ieri h: 07:53 poco_nuvoloso Poco Nuvoloso 11 3 57 1019 10 N/NO 7.4
Ieri h: 06:53 poco_nuvoloso Poco Nuvoloso 9 3 66 1018 10 N/NO 9.3